Jemez Springs, Valles Caldera, New Mexico Weather observations

Data are for 10 minute period ending at time listed.
 Day   Time   Solar   Ave.   Ave.  Ave.  Vector  Max.   Baro.   Total    
  of    of     Rad.   Air    Rel.  Wind   Wind   Wind  Press.  Precip.   
Year   Day            Temp.  Hum.  Speed  Dir.   Gust                    
2015   (MST)  Kw/m2    F      %     mph   deg.    mph    mb.     in.     
-------------------------------------------------------------------------
 208   10:30   0.90   79.8    37    6.7   180    14.3   810.8    0.00 
 208   10:40   0.91   79.6    37    8.4   174    13.7   810.9    0.00 
 208   10:50   0.92   79.2    38    7.7   178    14.9   811.0    0.00 
 208   11:00   0.93   79.9    37    7.1   175    13.7   811.0    0.00 
 208   11:10   0.94   80.6    36    7.5   180    14.3   811.0    0.00 
 208   11:20   0.95   80.7    34    7.4   181    12.5   810.9    0.00 
 208   11:30   0.96   80.5    35    8.0   184    13.7   810.8    0.00 
 208   11:40   0.96   81.1    34    6.5   185    13.1   810.7    0.00 
 208   11:50   0.97   81.8    34    7.2   171    12.2   810.6    0.00 
 208   12:00   0.97   81.3    34    7.6   176    14.9   810.6    0.00 
 208   12:10   0.95   82.5    31    6.7   204    16.7   810.5    0.00 
 208   12:20   0.91   82.4    30    7.4   180    16.7   810.3    0.00 
 208   12:30   1.01   83.0    28    8.4   186    13.7   810.2    0.00 
 208   12:40   1.00   83.4    26    9.3   177    14.3   810.1    0.00 
 208   12:50   0.99   84.1    26    8.2   169    14.3   810.0    0.00 
 208   13:00   0.96   84.2    25    6.7   169    14.9   809.9    0.00 
 208   13:10   0.95   84.2    24    8.6   185    16.1   809.7    0.00 
 208   13:20   0.95   84.6    24    8.5   173    14.9   809.6    0.00 
 208   13:30   0.97   85.2    23    5.7   190    12.5   809.6    0.00 
 208   13:40   0.83   85.5    22    5.9   151    20.9   809.5    0.00 
 208   13:50   0.94   86.3    23    7.3   174    15.5   809.4    0.00 
 208   14:00   0.85   86.7    22    7.8   205    18.5   809.4    0.00 
 208   14:10   0.23   85.6    23    6.6   196    14.3   809.3    0.00 
 208   14:20   0.86   85.8    23    4.3   129     9.6   809.2    0.00 
 208   14:30   0.41   86.4    22    6.0   159    13.1   809.2    0.00 
 208   14:40   0.18   83.6    23    8.8   169    22.7   809.2    0.00 
 208   14:50   0.59   83.7    23    8.8   180    13.7   809.2    0.00 
 208   15:00   0.74   85.9    21    8.0   148    14.9   809.0    0.00 
 208   15:10   0.39   84.4    21    7.6   186    15.5   809.0    0.00 
 208   15:20   0.75   86.6    20    7.5   189    14.9   808.9    0.00 
 208   15:30   0.67   87.6    19    5.8   174    13.1   808.9    0.00 
 208   15:40   0.67   86.7    18    5.9   172    14.9   808.9    0.00 
 208   15:50   0.62   87.1    18    7.0   172    14.9   808.8    0.00 
 208   16:00   0.49   87.3    18    7.5   170    13.7   808.7    0.00 
 208   16:10   0.34   86.0    19    7.3   186    13.7   808.6    0.00 
 208   16:20   0.21   85.0    19    6.0   188    11.9   808.7    0.00 
 208   16:30   0.19   84.8    20    4.3   135     9.0   808.5    0.00 
 208   16:40   0.19   84.1    21    6.1   176    10.2   808.4    0.00 
 208   16:50   0.16   83.9    22    5.0   176     6.6   808.3    0.00 
 208   17:00   0.34   84.4    21    5.1   179     8.4   808.1    0.00 
 208   17:10   0.33   85.8    21    5.3   190    11.9   808.1    0.00 
 208   17:20   0.26   85.9    20    2.4   191     7.2   808.1    0.00 
 208   17:30   0.27   85.3    22    4.8   190     8.4   808.1    0.00 
 208   17:40   0.19   85.0    22    3.9   210     9.6   808.1    0.00 
 208   17:50   0.10   84.3    22    2.3   197     6.6   808.1    0.00 
 208   18:00   0.09   83.9    23    2.9   255     6.9   808.1    0.00 
 208   18:10   0.08   83.4    24    2.0   159     5.4   808.2    0.00 
 208   18:20   0.07   82.7    27    2.8   192     7.8   808.3    0.00 
 208   18:30   0.06   82.1    25    2.0   214     7.8   808.3    0.00 
 208   18:40   0.04   81.0    28    2.2   188     4.8   808.3    0.00 
 208   18:50   0.03   79.9    31    0.9   225     3.6   808.3    0.00 
 208   19:00   0.02   77.9    34    0.8   356     2.4   808.3    0.00 
 208   19:10   0.01   77.0    35    1.8    26     3.0   808.4    0.00 
 208   19:20   0.01   75.8    40    1.1    14     2.4   808.4    0.00 
 208   19:30   0.00   74.4    43    2.4    34     3.6   808.5    0.00 
 208   19:40   0.00   73.8    40    3.3    24     6.0   808.6    0.00 
 208   19:50   0.00   74.8    35    3.2    28     5.4   808.7    0.00 
 208   20:00   0.00   74.4    35    4.3    24     7.2   808.8    0.00 
 208   20:10   0.00   74.2    35    4.7    24     7.2   808.9    0.00 
 208   20:20   0.00   73.8    36    5.2    19     8.4   809.0    0.00 
 208   20:30   0.00   73.7    37    5.6    11     9.0   809.1    0.00 
 208   20:40   0.00   73.3    37    5.0     3     9.0   809.1    0.00 
 208   20:50   0.00   73.3    37    4.7    13     7.5   809.2    0.00 
 208   21:00   0.00   73.0    38    5.0     7     9.0   809.4    0.00 
 208   21:10   0.00   73.0    37    5.5     7     8.4   809.4    0.00 
 208   21:20   0.00   73.2    36    5.7     8    10.2   809.5    0.00 
 208   21:30   0.00   72.3    38    5.0     5     8.4   809.5    0.00 
 208   21:40   0.00   71.6    39    4.6     4     8.4   809.5    0.00 
 208   21:50   0.00   71.3    40    5.4     9    10.8   809.5    0.00 
 208   22:00   0.00   70.7    41    5.8     4     9.6   809.6    0.00 
 208   22:10   0.00   70.4    41    4.8    10     8.4   809.6    0.00 
 208   22:20   0.00   69.7    42    3.8   353     8.4   809.6    0.00 
 208   22:30   0.00   69.4    42    4.6   354    10.2   809.6    0.00 
 208   22:40   0.00   69.3    43    4.4     8     8.4   809.6    0.00 
 208   22:50   0.00   69.2    43    5.4   347    10.8   809.7    0.00 
 208   23:00   0.00   69.6    41    5.0   358     9.0   809.9    0.00 
 208   23:10   0.00   69.5    42    6.0   360    10.2   809.9    0.00 
 208   23:20   0.00   69.2    43    5.9    12    10.2   809.9    0.00 
 208   23:30   0.00   69.1    42    6.1   359    13.1   809.8    0.00 
 208   23:40   0.00   69.2    42    5.8    14    10.2   809.8    0.00 
 208   23:50   0.00   69.0    43    6.0    18    10.2   809.8    0.00 
 209    0:00   0.00   68.7    43    5.2    10    10.2   809.8    0.00 
 209    0:10   0.00   68.7    43    6.0     9    11.3   809.8    0.00 
 209    0:20   0.00   68.7    43    6.1    14    11.9   809.8    0.00 
 209    0:30   0.00   68.5    44    6.5    15    11.9   809.9    0.00 
 209    0:40   0.00   68.2    45    6.2     6    10.8   809.9    0.00 
 209    0:50   0.00   68.3    44    6.4   360    13.1   809.9    0.00 
 209    1:00   0.00   68.2    44    7.0     7    11.9   809.8    0.00 
 209    1:10   0.00   67.9    46    6.0    19    10.8   809.8    0.00 
 209    1:20   0.00   67.8    46    5.5     7     9.6   809.8    0.00 
 209    1:30   0.00   67.8    46    5.9     5    11.3   809.8    0.00 
 209    1:40   0.00   67.8    46    5.8   358     9.0   809.8    0.00 
 209    1:50   0.00   67.9    46    6.5   350    10.8   809.7    0.00 
 209    2:00   0.00   67.9    46    6.8     4    11.9   809.7    0.00 
 209    2:10   0.00   67.7    46    6.1     9    10.2   809.7    0.00 
 209    2:20   0.00   67.7    46    6.1     8    10.2   809.8    0.00 
 209    2:30   0.00   67.4    48    5.0   356     8.4   809.7    0.00 
 209    2:40   0.00   67.3    48    5.2   359    10.2   809.7    0.00 
 209    2:50   0.00   67.1    49    4.9     4     8.4   809.8    0.00 
 209    3:00   0.00   67.0    49    5.4   355    10.8   809.8    0.00 
 209    3:10   0.00   66.9    49    4.5   358     9.6   809.9    0.00 
 209    3:20   0.00   66.6    50    4.3   353     9.0   809.9    0.00 
 209    3:30   0.00   66.4    50    5.5    16     9.6   810.0    0.00 
 209    3:40   0.00   66.3    51    4.4   354     9.0   810.0    0.00 
 209    3:50   0.00   66.0    51    5.2     2     9.6   810.1    0.00 
 209    4:00   0.00   66.1    51    4.8   356     7.8   810.2    0.00 
 209    4:10   0.00   66.0    51    4.4   351     7.8   810.2    0.00 
 209    4:20   0.00   65.9    52    3.6     2     7.8   810.4    0.00 
 209    4:30   0.00   65.8    52    3.5   352     6.6   810.4    0.00 
 209    4:40   0.00   65.6    52    5.7     1    11.3   810.3    0.00 
 209    4:50   0.00   65.7    52    6.9     2    10.8   810.3    0.00 
 209    5:00   0.00   65.3    52    6.6     6    11.3   810.4    0.00 
 209    5:10   0.00   65.0    52    6.4     8    12.5   810.5    0.00 
 209    5:20   0.00   64.8    52    6.4    13    11.9   810.5    0.00 
 209    5:30   0.01   64.8    52    5.9     4    10.8   810.6    0.00 
 209    5:40   0.01   64.4    53    6.2    14     9.6   810.8    0.00 
 209    5:50   0.02   64.3    53    5.8   360    11.3   810.9    0.00 
 209    6:00   0.03   64.4    52    6.3   360    11.3   811.0    0.00 
 209    6:10   0.04   64.5    52    5.8     9    10.2   811.1    0.00 
 209    6:20   0.07   64.4    52    4.5     4     7.8   811.2    0.00 
 209    6:30   0.09   65.2    51    4.4   354     7.8   811.3    0.00 
 209    6:40   0.08   65.8    50    4.6   340     9.0   811.5    0.00 
 209    6:50   0.10   66.2    49    5.2   341     8.4   811.5    0.00 
 209    7:00   0.13   66.7    48    5.1   351    10.2   811.5    0.00 
 209    7:10   0.23   67.6    47    4.8   353     7.8   811.6    0.00 
 209    7:20   0.48   70.3    44    4.4     7     7.8   811.6    0.00 
 209    7:30   0.30   73.1    40    3.7     4     7.2   811.6    0.00 
 209    7:40   0.20   71.9    42    2.9    12     5.4   811.7    0.00 
 209    7:50   0.26   72.1    42    2.5    48     4.8   811.7    0.00 
 209    8:00   0.20   72.6    42    2.8   347     4.2   811.7    0.00 
 209    8:10   0.14   72.1    45    2.4    24     3.6   811.8    0.00 
 209    8:20   0.15   71.6    46    2.5    10     4.2   811.8    0.00 
 209    8:30   0.12   71.8    46    3.1    23     4.8   811.9    0.00 
 209    8:40   0.11   71.6    45    3.9    19     7.2   811.8    0.00 
 209    8:50   0.11   72.2    42    3.3   300     6.0   811.8    0.00 
 209    9:00   0.13   73.1    41    2.7   322     4.8   811.8    0.00 
 209    9:10   0.18   73.5    44    3.0   360     6.0   811.9    0.00 
 209    9:20   0.23   73.1    46    3.4    36     6.0   811.9    0.00 
 209    9:30   0.37   74.7    43    3.8   338     7.5   811.8    0.00 
 209    9:40   0.38   75.4    40    4.9    18     8.4   811.8    0.00 
 209    9:50   0.66   77.0    38    5.0   346    11.9   811.8    0.00 
 209   10:00   0.81   79.4    32    6.4    11    11.9   811.8    0.00 
 209   10:10   0.96   81.8    26    5.6     5     9.0   811.8    0.00 
 209   10:20   0.98   82.6    23    6.2    14    10.2   811.9    0.00 

Return to Jemez Springs, Valles Caldera graphs page.


Western Regional Climate Center,wrcc@dri.edu